Time;durP1;ratioP1;P1;durP2;ratioP2;P2;SDS_P1;SDS_P2;PMS_P1;PMS_P2;Temp;Humidity;BMP_temperature;BMP_pressure;BME280_temperature;BME280_humidity;BME280_pressure;Samples;Min_cycle;Max_cycle;Signal;HPM_P1;HPM_P2
2023/06/08 00:07:25;;;;;;;4.83;3.27;;;13.20;99.90;;;;;;1940682;72;26310;-88
2023/06/08 00:10:24;;;;;;;5.80;3.20;;;12.80;99.90;;;;;;1900645;75;25181;-88
2023/06/08 00:13:12;;;;;;;6.40;3.73;;;12.70;99.90;;;;;;1899323;75;25266;-88
2023/06/08 00:16:03;;;;;;;7.13;3.60;;;12.70;99.90;;;;;;1900144;75;25624;-88
2023/06/08 00:18:54;;;;;;;4.73;3.00;;;12.70;99.90;;;;;;1901202;75;25406;-88
2023/06/08 00:21:45;;;;;;;4.90;3.33;;;12.60;99.90;;;;;;1884153;75;25166;-88
2023/06/08 00:24:34;;;;;;;8.37;3.70;;;12.50;99.90;;;;;;1886960;75;25312;-88
2023/06/08 00:27:23;;;;;;;6.00;3.50;;;12.50;99.90;;;;;;1900895;75;25218;-88
2023/06/08 00:30:15;;;;;;;4.90;3.33;;;12.50;99.90;;;;;;1895111;75;25955;-88
2023/06/08 00:33:04;;;;;;;6.10;3.70;;;12.40;99.90;;;;;;1893981;75;25251;-88
2023/06/08 00:35:54;;;;;;;8.00;3.30;;;12.30;99.90;;;;;;1903109;75;26818;-88
2023/06/08 00:41:32;;;;;;;5.10;3.20;;;12.20;99.90;;;;;;1942911;72;27340;-88
2023/06/08 00:44:22;;;;;;;6.37;3.83;;;;;;;;;;1937112;73;25334;-88
2023/06/08 00:49:58;;;;;;;5.27;3.30;;;12.10;99.90;;;;;;1944733;72;27036;-88
2023/06/08 00:52:47;;;;;;;4.93;3.80;;;12.10;99.90;;;;;;1883160;75;25796;-88
2023/06/08 00:55:35;;;;;;;4.17;3.53;;;12.00;99.90;;;;;;1869668;75;25237;-88
2023/06/08 00:58:24;;;;;;;4.67;3.40;;;11.90;99.90;;;;;;1906842;75;25175;-88
2023/06/08 01:01:17;;;;;;;5.23;3.40;;;11.80;99.90;;;;;;1893789;75;25306;-88
2023/06/08 01:04:06;;;;;;;9.33;3.37;;;11.80;99.90;;;;;;1895873;73;25256;-89
2023/06/08 01:06:58;;;;;;;7.30;3.30;;;11.80;99.90;;;;;;1904076;75;25727;-89
2023/06/08 01:12:40;;;;;;;4.20;3.40;;;11.70;99.90;;;;;;1933474;72;27111;-88
2023/06/08 01:15:33;;;;;;;6.37;3.67;;;11.60;99.90;;;;;;1904226;73;25273;-88
2023/06/08 01:18:24;;;;;;;5.73;3.60;;;11.50;99.90;;;;;;1910631;73;25323;-89
2023/06/08 01:21:24;;;;;;;7.57;3.43;;;11.40;99.90;;;;;;1900848;74;25212;-88
2023/06/08 01:24:17;;;;;;;6.57;3.50;;;11.30;99.90;;;;;;1880172;75;25781;-88
2023/06/08 01:27:07;;;;;;;4.43;3.40;;;11.20;99.90;;;;;;1822763;77;25218;-88
2023/06/08 01:29:57;;;;;;;5.03;3.30;;;11.10;99.90;;;;;;1911028;74;25690;-88
2023/06/08 01:32:47;;;;;;;6.20;3.43;;;11.00;99.90;;;;;;1910909;73;25221;-88
2023/06/08 01:35:36;;;;;;;10.10;3.80;;;11.00;99.90;;;;;;1878955;75;25279;-88
2023/06/08 01:38:30;;;;;;;5.20;3.60;;;10.90;99.90;;;;;;1844959;76;25794;-89
2023/06/08 01:41:23;;;;;;;5.80;3.40;;;10.80;99.90;;;;;;1913862;73;25235;-88
2023/06/08 02:16:22;;;;;;;10.00;3.70;;;10.70;99.90;;;;;;1957651;71;26399;-88
2023/06/08 02:19:16;;;;;;;8.47;4.33;;;10.50;99.90;;;;;;1943115;73;25216;-88
2023/06/08 02:22:06;;;;;;;8.53;3.97;;;10.50;99.90;;;;;;1939306;72;25734;-88
2023/06/08 02:24:57;;;;;;;8.27;4.07;;;10.50;99.90;;;;;;1921547;74;25304;-88
2023/06/08 02:27:46;;;;;;;7.00;4.43;;;10.40;99.90;;;;;;1925428;72;25240;-88
2023/06/08 02:30:34;;;;;;;6.00;3.80;;;10.40;99.90;;;;;;1934088;73;25311;-88
2023/06/08 02:33:23;;;;;;;6.87;3.43;;;10.40;99.90;;;;;;1936770;72;25303;-88
2023/06/08 02:36:12;;;;;;;5.90;3.80;;;10.40;99.90;;;;;;1935623;73;25201;-89
2023/06/08 02:39:07;;;;;;;5.43;3.50;;;10.30;99.90;;;;;;1931202;73;25279;-89
2023/06/08 02:41:55;;;;;;;4.77;3.77;;;10.20;99.90;;;;;;1937498;73;25203;-89
2023/06/08 02:47:36;;;;;;;4.23;3.33;;;10.20;99.90;;;;;;1933539;73;28256;-88
2023/06/08 03:09:12;;;;;;;7.30;4.07;;;10.30;99.90;;;;;;1978168;71;27062;-88
2023/06/08 03:12:03;;;;;;;5.87;3.93;;;10.30;99.90;;;;;;1996921;70;25174;-89
2023/06/08 03:17:44;;;;;;;6.50;3.43;;;10.50;99.90;;;;;;1970400;72;26787;-89
2023/06/08 03:23:51;;;;;;;4.53;3.20;;;11.40;99.90;;;;;;2055555;68;26216;-88
2023/06/08 03:29:29;;;;;;;7.13;3.33;;;12.10;99.90;;;;;;1925290;72;27143;-88
2023/06/08 03:32:26;;;;;;;7.53;3.40;;;12.50;99.90;;;;;;1903970;75;25249;-88
2023/06/08 03:35:16;;;;;;;3.97;2.90;;;12.80;99.90;;;;;;1893617;74;25239;-89
2023/06/08 03:38:12;;;;;;;4.47;3.00;;;13.10;99.90;;;;;;1899638;73;25232;-89
2023/06/08 04:00:06;;;;;;;6.17;3.50;;;15.30;99.90;;;;;;1964000;71;26406;-89
2023/06/08 04:05:47;;;;;;;8.10;3.63;;;16.00;99.90;;;;;;1945856;72;27067;-88
2023/06/08 04:08:35;;;;;;;8.80;3.77;;;16.40;99.90;;;;;;1923600;72;25184;-87
2023/06/08 04:11:25;;;;;;;5.07;3.50;;;16.70;99.90;;;;;;1920213;73;25275;-89
2023/06/08 04:15:10;;;;;;;5.23;3.70;;;17.20;99.90;;;;;;1921442;72;25183;-89
2023/06/08 04:18:01;;;;;;;6.27;3.70;;;17.40;99.90;;;;;;1924028;73;25330;-89
2023/06/08 04:50:12;;;;;;;13.70;4.93;;;19.40;99.90;;;;;;1944235;72;26948;-88
2023/06/08 04:53:01;;;;;;;16.17;5.57;;;19.30;99.90;;;;;;1936855;73;25219;-89
2023/06/08 04:55:57;;;;;;;16.60;5.77;;;19.20;99.90;;;;;;1929629;72;25271;-90
2023/06/08 05:02:26;;;;;;;17.60;6.00;;;19.40;99.90;;;;;;2085154;67;26999;-89
2023/06/08 05:05:15;;;;;;;18.57;6.00;;;19.40;99.90;;;;;;2033648;70;25175;-88
2023/06/08 05:11:44;;;;;;;14.20;5.57;;;19.50;99.90;;;;;;2015348;69;25707;-88
2023/06/08 05:14:32;;;;;;;19.23;6.13;;;19.40;99.90;;;;;;2038771;68;25210;-88
2023/06/08 05:17:22;;;;;;;14.80;6.00;;;19.00;99.90;;;;;;1991899;71;25209;-88
2023/06/08 05:20:11;;;;;;;18.43;5.20;;;19.30;99.90;;;;;;2030912;69;25616;-90
2023/06/08 05:23:05;;;;;;;18.33;5.57;;;19.30;99.90;;;;;;2038259;70;25681;-89
2023/06/08 05:25:54;;;;;;;9.87;5.13;;;19.30;99.90;;;;;;2031069;69;25133;-89
2023/06/08 05:28:52;;;;;;;12.70;5.40;;;18.50;99.90;;;;;;2047946;69;25321;-89
2023/06/08 05:31:43;;;;;;;11.47;5.37;;;18.30;99.90;;;;;;2036284;69;25138;-89
2023/06/08 05:34:31;;;;;;;15.70;6.10;;;18.20;99.90;;;;;;2026725;69;25181;-89
2023/06/08 05:40:42;;;;;;;7.63;4.77;;;18.10;99.90;;;;;;1998935;70;26754;-87
2023/06/08 05:43:30;;;;;;;6.47;4.77;;;18.40;99.90;;;;;;1963005;71;25231;-90
2023/06/08 05:49:12;;;;;;;7.63;4.50;;;18.20;99.90;;;;;;2032461;69;27046;-88
2023/06/08 05:52:03;;;;;;;6.43;3.70;;;18.20;99.90;;;;;;2003031;70;25250;-88
2023/06/08 05:54:52;;;;;;;7.63;4.00;;;18.60;99.90;;;;;;2001753;71;25234;-89
2023/06/08 05:57:41;;;;;;;8.07;3.60;;;18.40;99.90;;;;;;1996229;71;25287;-89
2023/06/08 06:00:30;;;;;;;7.83;4.13;;;18.40;99.90;;;;;;1999493;70;25206;-90
2023/06/08 06:40:12;;;;;;;5.20;3.47;;;18.40;99.90;;;;;;1984601;71;26778;-89
2023/06/08 06:43:01;;;;;;;5.07;3.53;;;19.10;99.90;;;;;;1935916;72;25198;-90
2023/06/08 06:51:50;;;;;;;4.10;3.20;;;18.90;99.90;;;;;;1959741;72;26997;-89
2023/06/08 06:54:39;;;;;;;6.30;3.63;;;19.20;99.90;;;;;;1975267;72;25768;-89
2023/06/08 06:57:28;;;;;;;5.93;3.40;;;19.50;99.90;;;;;;1994733;72;25275;-89
2023/06/08 07:09:37;;;;;;;5.87;3.50;;;19.50;99.90;;;;;;1988019;71;28077;-90
2023/06/08 07:12:37;;;;;;;4.97;3.53;;;19.10;99.90;;;;;;1955455;72;25220;-89
2023/06/08 07:46:13;;;;;;;6.77;3.10;;;19.50;99.90;;;;;;1946229;72;27044;-89
2023/06/08 07:52:17;;;;;;;4.67;2.83;;;19.30;99.90;;;;;;1968249;71;26998;-90
2023/06/08 07:55:24;;;;;;;4.83;3.10;;;19.40;99.90;;;;;;1926399;73;25631;-90
2023/06/08 07:58:52;;;;;;;5.27;3.40;;;19.10;99.90;;;;;;2009707;70;25243;-90
2023/06/08 08:01:40;;;;;;;6.53;3.27;;;19.30;99.90;;;;;;2012698;70;25240;-89
2023/06/08 08:04:30;;;;;;;4.53;3.43;;;19.70;99.90;;;;;;2017482;70;25989;-89
2023/06/08 08:10:00;;;;;;;4.90;3.40;;;19.70;99.90;;;;;;1945971;72;27440;-89
2023/06/08 08:12:49;;;;;;;4.13;3.03;;;19.90;99.90;;;;;;1927787;72;27025;-90
2023/06/08 08:15:39;;;;;;;4.33;2.97;;;20.20;99.90;;;;;;1890005;75;25240;-89
2023/06/08 08:18:31;;;;;;;7.33;3.10;;;20.10;99.90;;;;;;1841281;76;25265;-89
2023/06/08 08:24:15;;;;;;;6.93;3.30;;;20.00;99.90;;;;;;1955899;72;27536;-89
2023/06/08 08:27:04;;;;;;;8.50;3.30;;;20.60;99.90;;;;;;1957180;72;25282;-89
2023/06/08 08:58:35;;;;;;;5.73;3.50;;;20.50;99.90;;;;;;1986025;71;26694;-89
2023/06/08 09:01:25;;;;;;;3.77;2.90;;;21.20;99.90;;;;;;1957804;72;25658;-89
2023/06/08 09:04:15;;;;;;;4.27;2.63;;;21.30;99.90;;;;;;2035597;69;25224;-90
2023/06/08 09:07:04;;;;;;;6.23;2.97;;;20.50;99.90;;;;;;2046855;69;25241;-91
2023/06/08 09:26:56;;;;;;;4.17;3.33;;;21.20;99.90;;;;;;1958770;72;26954;-90
2023/06/08 09:46:41;;;;;;;6.73;3.30;;;21.50;99.90;;;;;;1933463;72;27138;-89
2023/06/08 09:49:29;;;;;;;5.37;3.30;;;21.20;99.90;;;;;;1897515;73;25205;-89
2023/06/08 09:52:20;;;;;;;4.07;2.80;;;21.10;99.90;;;;;;1876409;76;25242;-89
2023/06/08 09:55:13;;;;;;;7.70;2.87;;;21.40;99.90;;;;;;1859045;76;25762;-89
2023/06/08 10:01:28;;;;;;;4.10;2.80;;;21.00;99.90;;;;;;1953530;72;26317;-90
2023/06/08 10:16:08;;;;;;;5.73;3.00;;;21.90;99.90;;;;;;1967394;70;26254;-90
2023/06/08 10:21:51;;;;;;;4.47;3.23;;;22.50;99.90;;;;;;1943253;72;27532;-90
2023/06/08 10:24:40;;;;;;;3.63;3.00;;;22.30;99.90;;;;;;1902700;75;25864;-90
2023/06/08 10:27:33;;;;;;;7.50;2.70;;;22.20;99.90;;;;;;1874778;75;25173;-90
2023/06/08 10:30:30;;;;;;;3.70;2.70;;;21.90;99.90;;;;;;1892875;75;25170;-90
2023/06/08 10:33:24;;;;;;;3.20;2.50;;;21.80;99.90;;;;;;1882962;75;25168;-90
2023/06/08 10:36:13;;;;;;;5.50;2.67;;;21.60;99.90;;;;;;1896744;75;25330;-90
2023/06/08 10:39:04;;;;;;;2.83;2.43;;;21.50;99.90;;;;;;1874213;75;25244;-90
2023/06/08 10:41:58;;;;;;;3.23;2.47;;;21.30;99.90;;;;;;1891737;75;25203;-90
2023/06/08 10:44:54;;;;;;;5.50;2.77;;;21.20;99.90;;;;;;1863414;76;25965;-91
2023/06/08 10:47:49;;;;;;;4.23;2.80;;;21.50;99.90;;;;;;1855206;76;25333;-90
2023/06/08 11:06:52;;;;;;;6.03;2.30;;;21.40;99.90;;;;;;1939332;72;27128;-89
2023/06/08 11:09:42;;;;;;;4.00;2.30;;;21.40;99.90;;;;;;1888404;75;25162;-90
2023/06/08 11:12:31;;;;;;;4.07;2.40;;;21.20;99.90;;;;;;1896643;75;25367;-90
2023/06/08 11:15:21;;;;;;;7.90;2.73;;;21.50;99.90;;;;;;1896920;73;25167;-90
2023/06/08 11:18:11;;;;;;;3.50;2.87;;;21.60;99.90;;;;;;1833852;76;25347;-90
2023/06/08 11:20:59;;;;;;;3.40;2.53;;;21.80;99.90;;;;;;1852445;75;25372;-90
2023/06/08 11:24:01;;;;;;;3.73;2.77;;;21.90;99.90;;;;;;1898940;74;25247;-90
2023/06/08 11:45:59;;;;;;;4.17;2.87;;;20.90;99.90;;;;;;1974611;71;27327;-90
2023/06/08 11:48:51;;;;;;;3.10;2.80;;;21.30;99.90;;;;;;2022622;70;25192;-89
2023/06/08 11:51:47;;;;;;;5.00;2.47;;;21.60;99.90;;;;;;2008063;70;25832;-90
2023/06/08 11:55:03;;;;;;;5.33;2.53;;;21.40;99.90;;;;;;2021074;70;25238;-90
2023/06/08 11:57:59;;;;;;;3.87;2.13;;;21.30;99.90;;;;;;1998663;70;25219;-90
2023/06/08 12:00:53;;;;;;;5.80;2.70;;;21.50;99.90;;;;;;2022468;70;25251;-90
2023/06/08 12:03:45;;;;;;;5.40;2.70;;;21.50;99.90;;;;;;1994029;70;25237;-90
2023/06/08 12:06:45;;;;;;;2.60;2.40;;;22.00;99.90;;;;;;2027176;70;25205;-90
2023/06/08 12:09:35;;;;;;;4.67;2.83;;;21.50;99.90;;;;;;2020810;70;25187;-90
2023/06/08 12:12:29;;;;;;;4.10;2.73;;;21.30;99.90;;;;;;2015795;70;25275;-91
2023/06/08 12:15:19;;;;;;;5.20;3.10;;;21.30;99.90;;;;;;2019212;70;25538;-90
2023/06/08 12:18:08;;;;;;;5.60;2.70;;;21.50;99.90;;;;;;2017023;70;25265;-90
2023/06/08 12:20:56;;;;;;;3.73;2.67;;;21.70;99.90;;;;;;2012867;70;25175;-90
2023/06/08 12:23:46;;;;;;;6.30;2.60;;;21.70;99.90;;;;;;2028955;68;25523;-90
2023/06/08 12:26:35;;;;;;;5.77;3.07;;;21.70;99.90;;;;;;1990124;70;25220;-91
2023/06/08 12:29:24;;;;;;;9.37;2.90;;;21.60;99.90;;;;;;2035065;70;25148;-90
2023/06/08 12:36:05;;;;;;;3.47;2.70;;;21.60;99.90;;;;;;1908092;72;25187;-90
2023/06/08 12:39:15;;;;;;;4.00;2.80;;;21.50;99.90;;;;;;1939265;73;25219;-91
2023/06/08 12:42:08;;;;;;;4.77;2.87;;;21.50;99.90;;;;;;1948245;72;25289;-90
2023/06/08 12:44:57;;;;;;;4.77;2.87;;;21.50;99.90;;;;;;1954412;72;25255;-90
2023/06/08 12:48:02;;;;;;;4.97;2.40;;;21.70;99.90;;;;;;1937953;73;25282;-90
2023/06/08 12:50:58;;;;;;;2.17;1.90;;;21.70;99.90;;;;;;1924804;73;25156;-90
2023/06/08 12:53:48;;;;;;;4.30;2.40;;;21.70;99.90;;;;;;1908811;74;25906;-90
2023/06/08 12:56:38;;;;;;;4.33;2.20;;;21.70;99.90;;;;;;1987803;71;25222;-90
2023/06/08 12:59:27;;;;;;;4.93;2.20;;;21.70;99.90;;;;;;1991170;71;25282;-90
2023/06/08 13:07:12;;;;;;;3.20;1.80;;;22.20;99.90;;;;;;1979548;71;27503;-90
2023/06/08 13:10:02;;;;;;;3.63;3.00;;;22.00;99.90;;;;;;1964945;72;25320;-91
2023/06/08 13:33:17;;;;;;;5.20;2.60;;;21.40;99.90;;;;;;1979622;71;26274;-90
2023/06/08 13:36:06;;;;;;;4.80;2.63;;;22.00;99.90;;;;;;2027932;70;25295;-90
2023/06/08 13:38:56;;;;;;;3.43;2.57;;;22.10;99.90;;;;;;1997571;70;25177;-90
2023/06/08 13:41:46;;;;;;;4.33;2.23;;;21.90;99.90;;;;;;1999002;70;25819;-90
2023/06/08 13:44:36;;;;;;;4.87;2.53;;;21.80;99.90;;;;;;1973598;70;25192;-90
2023/06/08 13:47:25;;;;;;;4.20;2.63;;;21.80;99.90;;;;;;1996879;70;25262;-90
2023/06/08 13:50:14;;;;;;;6.93;2.67;;;21.60;99.90;;;;;;1988275;70;25201;-90
2023/06/08 13:53:03;;;;;;;5.47;2.73;;;21.80;99.90;;;;;;2007907;70;25803;-89
2023/06/08 14:14:21;;;;;;;5.63;2.80;;;22.30;99.90;;;;;;1963877;72;27531;-90
2023/06/08 14:17:10;;;;;;;6.13;3.20;;;22.50;99.90;;;;;;1995524;70;25159;-90
2023/06/08 14:22:54;;;;;;;3.93;2.77;;;22.50;99.90;;;;;;1953679;72;26958;-89
2023/06/08 14:32:45;;;;;;;3.33;2.53;;;22.30;99.90;;;;;;1976506;71;27372;-90
2023/06/08 14:35:37;;;;;;;3.63;2.73;;;22.10;99.90;;;;;;2011308;70;25277;-90
2023/06/08 14:38:24;;;;;;;5.97;3.00;;;22.00;99.90;;;;;;2025529;70;25206;-90
2023/06/08 14:43:58;;;;;;;6.50;2.53;;;22.00;99.90;;;;;;1897952;74;27146;-89
2023/06/08 14:50:16;;;;;;;3.77;3.10;;;22.20;99.90;;;;;;1980270;71;29340;-89
2023/06/08 14:53:05;;;;;;;6.27;2.90;;;22.10;99.90;;;;;;1954934;72;25248;-90
2023/06/08 15:12:30;;;;;;;3.20;2.30;;;22.40;99.90;;;;;;1924220;72;26959;-90
2023/06/08 15:15:19;;;;;;;4.73;2.50;;;22.70;99.90;;;;;;1912897;74;25265;-90
2023/06/08 15:21:23;;;;;;;3.63;2.20;;;22.40;99.90;;;;;;1984065;71;26540;-89
2023/06/08 15:24:12;;;;;;;3.87;2.77;;;22.00;99.90;;;;;;1973564;70;25214;-89
2023/06/08 15:27:01;;;;;;;3.30;2.50;;;22.00;99.90;;;;;;2047001;68;25208;-89
2023/06/08 15:29:49;;;;;;;3.07;2.57;;;21.90;99.90;;;;;;2054792;68;25262;-89
2023/06/08 15:32:39;;;;;;;3.47;2.60;;;21.80;99.90;;;;;;2062946;68;25258;-90
2023/06/08 15:35:27;;;;;;;5.07;2.93;;;21.60;99.90;;;;;;2050338;68;25230;-90
2023/06/08 15:38:16;;;;;;;6.23;3.10;;;21.70;99.90;;;;;;2053235;68;25195;-90
2023/06/08 15:41:05;;;;;;;11.87;3.00;;;21.60;99.90;;;;;;2076821;68;25196;-90
2023/06/08 15:47:11;;;;;;;6.27;2.57;;;21.90;99.90;;;;;;1983438;71;26699;-89
2023/06/08 15:52:39;;;;;;;4.60;2.80;;;22.00;99.90;;;;;;1940550;72;27481;-90
2023/06/08 15:55:28;;;;;;;3.70;2.60;;;22.00;99.90;;;;;;1869067;76;25355;-89
2023/06/08 15:58:17;;;;;;;3.70;2.80;;;21.70;99.90;;;;;;1841992;78;25240;-89
2023/06/08 16:01:06;;;;;;;3.53;2.90;;;21.60;99.90;;;;;;1842282;78;25235;-89
2023/06/08 16:03:55;;;;;;;3.77;3.00;;;21.60;99.90;;;;;;1862810;75;25669;-89
2023/06/08 16:06:44;;;;;;;3.83;2.63;;;21.70;99.90;;;;;;1861901;76;25284;-89
2023/06/08 16:09:32;;;;;;;8.63;2.90;;;21.70;99.90;;;;;;1848232;76;25256;-89
2023/06/08 16:12:21;;;;;;;3.47;2.70;;;21.50;99.90;;;;;;1897811;74;25308;-89
2023/06/08 16:15:11;;;;;;;4.40;2.90;;;21.50;99.90;;;;;;1864438;76;25237;-89
2023/06/08 16:18:00;;;;;;;4.37;2.50;;;21.60;99.90;;;;;;1897653;73;25723;-89
2023/06/08 16:20:50;;;;;;;2.60;2.03;;;21.50;99.90;;;;;;1910090;73;25209;-89
2023/06/08 16:23:39;;;;;;;4.43;3.30;;;21.30;99.90;;;;;;1867112;75;25725;-89
2023/06/08 16:26:28;;;;;;;7.70;2.53;;;21.20;99.90;;;;;;1911581;73;25249;-89
2023/06/08 16:31:57;;;;;;;3.53;2.63;;;21.20;99.90;;;;;;1924699;72;27191;-89
2023/06/08 16:34:46;;;;;;;7.40;3.20;;;21.30;99.90;;;;;;1885326;75;25276;-89
2023/06/08 16:37:35;;;;;;;2.97;2.67;;;21.30;99.90;;;;;;1888192;75;25214;-89
2023/06/08 16:43:05;;;;;;;7.07;3.13;;;21.20;99.90;;;;;;1933401;72;27088;-90
2023/06/08 16:48:37;;;;;;;11.43;3.00;;;21.10;99.90;;;;;;1948570;72;27116;-88
2023/06/08 16:51:26;;;;;;;2.80;2.60;;;21.10;99.90;;;;;;1919870;73;25292;-89
2023/06/08 16:54:15;;;;;;;4.13;2.37;;;21.00;99.90;;;;;;1922621;73;25269;-89
2023/06/08 16:57:03;;;;;;;4.50;2.87;;;20.90;99.90;;;;;;1923188;73;25335;-89
2023/06/08 16:59:52;;;;;;;4.47;2.70;;;20.90;99.90;;;;;;1892547;75;25810;-89
2023/06/08 17:02:41;;;;;;;2.90;2.60;;;20.90;99.90;;;;;;1925672;73;25251;-87
2023/06/08 17:05:29;;;;;;;3.80;2.90;;;20.80;99.90;;;;;;1925065;73;25232;-88
2023/06/08 17:08:18;;;;;;;3.57;2.73;;;20.70;99.90;;;;;;1917629;73;25328;-89
2023/06/08 17:14:00;;;;;;;3.23;2.73;;;20.80;99.90;;;;;;1951784;72;27040;-89
2023/06/08 17:16:49;;;;;;;4.13;2.70;;;20.70;99.90;;;;;;1933455;73;25703;-90
2023/06/08 17:19:37;;;;;;;4.73;2.70;;;20.70;99.90;;;;;;1919755;73;25282;-89
2023/06/08 17:22:26;;;;;;;3.20;2.60;;;20.80;99.90;;;;;;1932270;73;25332;-88
2023/06/08 17:25:14;;;;;;;4.00;2.73;;;20.80;99.90;;;;;;1925290;73;25231;-89
2023/06/08 17:30:52;;;;;;;4.63;2.77;;;20.60;99.90;;;;;;1931821;72;27010;-89
2023/06/08 17:33:41;;;;;;;3.80;2.73;;;20.60;99.90;;;;;;1893898;75;25248;-89
2023/06/08 17:36:30;;;;;;;8.30;2.80;;;20.60;99.90;;;;;;1897795;75;25294;-90
2023/06/08 17:39:18;;;;;;;3.73;2.60;;;20.50;99.90;;;;;;1889884;75;25288;-90
2023/06/08 17:44:52;;;;;;;4.30;2.70;;;20.40;99.90;;;;;;1932010;72;27590;-88
2023/06/08 17:47:41;;;;;;;5.53;2.73;;;20.40;99.90;;;;;;1906885;73;25234;-88
2023/06/08 17:50:30;;;;;;;4.93;2.90;;;20.30;99.90;;;;;;1906209;73;25246;-89
2023/06/08 17:56:00;;;;;;;3.40;2.93;;;20.50;99.90;;;;;;1926649;72;26944;-88
2023/06/08 17:58:48;;;;;;;4.67;2.60;;;20.40;99.90;;;;;;1913749;73;25332;-88
2023/06/08 18:07:11;;;;;;;5.43;2.87;;;20.20;99.90;;;;;;1945687;72;26905;-89
2023/06/08 18:10:00;;;;;;;6.53;2.80;;;20.20;99.90;;;;;;1932633;72;25315;-89
2023/06/08 18:12:48;;;;;;;3.57;2.90;;;20.30;99.90;;;;;;1924317;72;25785;-89
2023/06/08 18:15:37;;;;;;;4.30;2.83;;;20.10;99.90;;;;;;1922828;72;25247;-89
2023/06/08 18:18:26;;;;;;;14.40;3.40;;;20.10;99.90;;;;;;1929851;72;25622;-89
2023/06/08 18:21:16;;;;;;;6.40;3.00;;;20.10;99.90;;;;;;1946527;72;25305;-89
2023/06/08 18:24:06;;;;;;;3.17;2.67;;;20.00;99.90;;;;;;1920570;73;25238;-89
2023/06/08 18:26:56;;;;;;;11.23;2.97;;;19.80;99.90;;;;;;1921634;72;25172;-89
2023/06/08 18:29:44;;;;;;;4.63;2.90;;;19.70;99.90;;;;;;1927944;73;25789;-89
2023/06/08 18:32:34;;;;;;;4.47;2.67;;;19.60;99.90;;;;;;1933658;73;25340;-89
2023/06/08 18:38:05;;;;;;;9.17;3.20;;;19.40;99.90;;;;;;1897285;74;27123;-89
2023/06/08 18:44:09;;;;;;;6.50;2.53;;;19.10;99.90;;;;;;1982277;71;27026;-88
2023/06/08 18:46:58;;;;;;;4.00;2.50;;;19.00;99.90;;;;;;1960160;71;25274;-88
2023/06/08 18:49:47;;;;;;;5.00;2.80;;;18.80;99.90;;;;;;2053867;68;25210;-88
2023/06/08 18:52:35;;;;;;;4.60;2.77;;;18.70;99.90;;;;;;2039047;69;25180;-88
2023/06/08 18:55:24;;;;;;;4.70;2.80;;;18.70;99.90;;;;;;2054765;68;25169;-89
2023/06/08 18:58:14;;;;;;;3.13;2.70;;;18.60;99.90;;;;;;2049414;68;25181;-89
2023/06/08 19:01:03;;;;;;;5.17;3.00;;;18.70;99.90;;;;;;2054915;68;25790;-89
2023/06/08 19:03:52;;;;;;;4.77;2.30;;;18.60;99.90;;;;;;2064097;68;25677;-89
2023/06/08 19:06:41;;;;;;;6.03;2.73;;;18.50;99.90;;;;;;2067088;68;25230;-89
2023/06/08 19:09:30;;;;;;;6.37;3.00;;;18.40;99.90;;;;;;2044076;69;25653;-89
2023/06/08 19:12:19;;;;;;;4.73;3.00;;;18.20;99.90;;;;;;2004735;70;25621;-89
2023/06/08 19:15:09;;;;;;;5.63;3.20;;;18.10;99.90;;;;;;1979776;71;25210;-90
2023/06/08 19:17:58;;;;;;;7.37;2.80;;;18.10;99.90;;;;;;2048629;69;25233;-89
2023/06/08 19:20:46;;;;;;;4.37;2.70;;;18.10;99.90;;;;;;2048968;69;25254;-89
2023/06/08 19:23:35;;;;;;;4.37;2.90;;;18.00;99.90;;;;;;2046801;68;25211;-89
2023/06/08 19:29:07;;;;;;;5.53;3.10;;;17.80;99.90;;;;;;1955970;72;27478;-88
2023/06/08 19:31:57;;;;;;;3.63;2.83;;;17.70;99.90;;;;;;1922753;73;25564;-88
2023/06/08 19:34:46;;;;;;;4.23;2.80;;;17.70;99.90;;;;;;1922300;73;25211;-90
2023/06/08 19:37:37;;;;;;;5.70;2.73;;;17.60;99.90;;;;;;1925512;73;25876;-89
2023/06/08 19:40:27;;;;;;;5.83;2.90;;;17.60;99.90;;;;;;1916789;73;25270;-89
2023/06/08 19:43:15;;;;;;;5.23;2.63;;;17.60;99.90;;;;;;1902993;74;25229;-90
2023/06/08 19:46:04;;;;;;;10.07;2.87;;;17.50;99.90;;;;;;1897624;74;25266;-89
2023/06/08 19:48:54;;;;;;;3.93;2.60;;;17.40;99.90;;;;;;1904249;74;25257;-87
2023/06/08 19:51:43;;;;;;;4.83;2.90;;;17.30;99.90;;;;;;1897048;74;25179;-90
2023/06/08 19:54:31;;;;;;;3.73;2.90;;;17.30;99.90;;;;;;1912008;74;25245;-90
2023/06/08 19:57:20;;;;;;;3.43;2.67;;;17.30;99.90;;;;;;1906871;74;25164;-90
2023/06/08 20:02:54;;;;;;;3.27;2.60;;;17.20;99.90;;;;;;1928400;72;27196;-88
2023/06/08 20:08:28;;;;;;;3.47;2.70;;;16.90;99.90;;;;;;1945333;72;27118;-91
2023/06/08 20:11:17;;;;;;;3.37;2.63;;;16.90;99.90;;;;;;1924662;73;25289;-88
2023/06/08 20:14:06;;;;;;;3.50;2.23;;;16.70;99.90;;;;;;1892949;75;25287;-88
2023/06/08 20:16:56;;;;;;;5.00;2.30;;;16.60;99.90;;;;;;1919858;73;25731;-88
2023/06/08 20:19:45;;;;;;;3.43;2.60;;;16.50;99.90;;;;;;1924933;73;25308;-88
2023/06/08 20:22:34;;;;;;;5.40;2.43;;;16.30;99.90;;;;;;1927870;73;25245;-88
2023/06/08 20:25:24;;;;;;;5.30;2.63;;;16.20;99.90;;;;;;1929575;73;25190;-88
2023/06/08 20:28:13;;;;;;;7.93;2.67;;;16.20;99.90;;;;;;1931630;73;25782;-87
2023/06/08 20:31:02;;;;;;;3.03;2.57;;;16.10;99.90;;;;;;1920886;73;25279;-88
2023/06/08 20:33:50;;;;;;;4.13;1.90;;;16.00;99.90;;;;;;1931101;73;25651;-88
2023/06/08 20:36:40;;;;;;;4.23;2.50;;;15.90;99.90;;;;;;1933856;73;25182;-87
2023/06/08 20:39:28;;;;;;;4.03;2.63;;;15.90;99.90;;;;;;1926890;73;25231;-88
2023/06/08 20:44:58;;;;;;;7.80;2.93;;;15.90;99.90;;;;;;1924358;72;28275;-88
2023/06/08 20:50:26;;;;;;;4.23;2.50;;;15.80;99.90;;;;;;1935631;72;27009;-87
2023/06/08 20:53:15;;;;;;;6.73;2.57;;;15.80;99.90;;;;;;1901301;74;25830;-87
2023/06/08 20:56:04;;;;;;;3.83;2.77;;;15.70;99.90;;;;;;1895662;75;25308;-87
2023/06/08 20:58:53;;;;;;;4.93;2.60;;;15.70;99.90;;;;;;1891935;73;25227;-87
2023/06/08 21:01:42;;;;;;;3.70;2.50;;;15.80;99.90;;;;;;1886691;75;25798;-88
2023/06/08 21:04:31;;;;;;;6.00;2.57;;;15.80;99.90;;;;;;1905004;75;25223;-88
2023/06/08 21:07:19;;;;;;;2.67;2.00;;;15.70;99.90;;;;;;1904335;75;25186;-88
2023/06/08 21:12:50;;;;;;;3.67;1.90;;;15.70;99.90;;;;;;1930188;72;27667;-87
2023/06/08 21:15:39;;;;;;;4.67;2.57;;;15.70;99.90;;;;;;1895176;75;25641;-88
2023/06/08 21:21:09;;;;;;;3.97;2.37;;;15.60;99.90;;;;;;1935741;72;27554;-87
2023/06/08 21:23:57;;;;;;;3.80;2.60;;;15.60;99.90;;;;;;1899218;75;25218;-88
2023/06/08 21:29:27;;;;;;;4.97;2.63;;;15.50;99.90;;;;;;1928355;72;27356;-87
2023/06/08 21:32:16;;;;;;;5.30;2.40;;;15.50;99.90;;;;;;1929092;73;25185;-88
2023/06/08 21:35:05;;;;;;;3.27;2.70;;;15.40;99.90;;;;;;1934760;73;25189;-88
2023/06/08 21:37:54;;;;;;;4.43;2.67;;;15.40;99.90;;;;;;1941100;73;25225;-87
2023/06/08 21:40:43;;;;;;;3.63;2.73;;;15.40;99.90;;;;;;1919625;73;25341;-87
2023/06/08 21:46:12;;;;;;;6.33;2.40;;;15.30;99.90;;;;;;1928235;72;27037;-87
2023/06/08 21:49:00;;;;;;;3.10;2.50;;;15.20;99.90;;;;;;1914053;73;25595;-87
2023/06/08 21:51:49;;;;;;;5.90;2.70;;;15.20;99.90;;;;;;1868582;76;25196;-87
2023/06/08 21:54:39;;;;;;;5.20;2.67;;;15.20;99.90;;;;;;1828011;77;25267;-88
2023/06/08 21:57:27;;;;;;;2.40;1.90;;;15.10;99.90;;;;;;1861250;76;25178;-88
2023/06/08 22:02:55;;;;;;;2.53;2.20;;;15.00;99.90;;;;;;1945554;72;26995;-87
2023/06/08 22:05:44;;;;;;;4.27;2.80;;;14.90;99.90;;;;;;1883475;75;25266;-87
2023/06/08 22:08:32;;;;;;;4.87;2.83;;;14.90;99.90;;;;;;1865355;76;25248;-87
2023/06/08 22:11:22;;;;;;;5.10;2.90;;;14.90;99.90;;;;;;1884135;75;25248;-87
2023/06/08 22:14:11;;;;;;;7.47;2.70;;;14.90;99.90;;;;;;1889171;75;25211;-86
2023/06/08 22:16:59;;;;;;;3.03;2.50;;;14.80;99.90;;;;;;1863962;76;25236;-87
2023/06/08 22:19:48;;;;;;;3.13;2.77;;;14.80;99.90;;;;;;1892937;73;25198;-89
2023/06/08 22:22:37;;;;;;;4.10;2.80;;;14.80;99.90;;;;;;1901611;75;25291;-89
2023/06/08 22:25:26;;;;;;;3.03;2.23;;;14.70;99.90;;;;;;1901411;75;25223;-88
2023/06/08 22:28:16;;;;;;;5.77;2.43;;;14.70;99.90;;;;;;1908164;75;25232;-89
2023/06/08 22:31:06;;;;;;;5.60;2.80;;;14.60;99.90;;;;;;1889775;75;25207;-89
2023/06/08 22:33:55;;;;;;;3.27;2.57;;;14.60;99.90;;;;;;1893468;75;25331;-88
2023/06/08 22:36:44;;;;;;;3.43;2.67;;;14.60;99.90;;;;;;1901525;75;25270;-89
2023/06/08 22:42:13;;;;;;;7.07;2.80;;;14.50;99.90;;;;;;1933497;72;27138;-87
2023/06/08 22:47:41;;;;;;;5.10;2.90;;;14.30;99.90;;;;;;1927603;72;27578;-88
2023/06/08 22:50:31;;;;;;;6.53;2.70;;;14.40;99.90;;;;;;1889653;75;25609;-87
2023/06/08 22:53:21;;;;;;;4.57;2.57;;;14.30;99.90;;;;;;1894024;75;25210;-88
2023/06/08 22:56:10;;;;;;;8.90;2.57;;;14.20;99.90;;;;;;1896672;75;25232;-88
2023/06/08 22:58:59;;;;;;;10.03;3.07;;;14.10;99.90;;;;;;1897488;73;25205;-88
2023/06/08 23:01:47;;;;;;;8.60;2.90;;;14.10;99.90;;;;;;1898957;75;25364;-88
2023/06/08 23:04:36;;;;;;;5.23;3.10;;;14.10;99.90;;;;;;1898424;73;25375;-88
2023/06/08 23:07:25;;;;;;;4.90;3.03;;;14.00;99.90;;;;;;1898405;75;25256;-89